Time;durP1;ratioP1;P1;durP2;ratioP2;P2;SDS_P1;SDS_P2;PMS_P1;PMS_P2;Temp;Humidity;BMP_temperature;BMP_pressure;BME280_temperature;BME280_humidity;BME280_pressure;Samples;Min_cycle;Max_cycle;Signal;HPM_P1;HPM_P2
2022/04/29 00:00:39;;;;;;;15.23;8.38;;;10.10;99.90;;;;;;5062892;28;20028;-59
2022/04/29 00:03:09;;;;;;;15.82;7.70;;;10.10;99.90;;;;;;5062072;28;20424;-58
2022/04/29 00:05:36;;;;;;;15.07;7.25;;;10.10;99.90;;;;;;5079686;28;20029;-59
2022/04/29 00:08:03;;;;;;;12.93;7.32;;;10.00;99.90;;;;;;5080581;28;20029;-59
2022/04/29 00:10:29;;;;;;;12.30;7.32;;;10.00;99.90;;;;;;5080076;28;20073;-58
2022/04/29 00:12:55;;;;;;;15.13;7.75;;;9.90;99.90;;;;;;5079853;28;20028;-59
2022/04/29 00:15:21;;;;;;;23.08;7.95;;;10.00;99.90;;;;;;5079707;28;20024;-59
2022/04/29 00:17:47;;;;;;;18.30;8.20;;;10.00;99.90;;;;;;5080180;28;20029;-59
2022/04/29 00:20:14;;;;;;;13.93;7.30;;;10.00;99.90;;;;;;5062645;28;20029;-58
2022/04/29 00:22:41;;;;;;;14.50;7.13;;;10.00;99.90;;;;;;5062350;28;20025;-58
2022/04/29 00:25:08;;;;;;;12.55;6.75;;;10.00;99.90;;;;;;5079754;28;20044;-56
2022/04/29 00:27:34;;;;;;;16.08;7.38;;;10.00;99.90;;;;;;5061601;28;20020;-59
2022/04/29 00:30:00;;;;;;;14.57;6.90;;;9.90;99.90;;;;;;5079933;28;20027;-59
2022/04/29 00:32:26;;;;;;;15.80;7.75;;;9.90;99.90;;;;;;5061898;28;20021;-59
2022/04/29 00:34:51;;;;;;;11.25;7.35;;;9.90;99.90;;;;;;5062433;28;20074;-59
2022/04/29 00:37:18;;;;;;;16.75;8.10;;;9.90;99.90;;;;;;5062646;28;20123;-60
2022/04/29 00:39:44;;;;;;;16.88;7.43;;;9.80;99.90;;;;;;5062213;28;20024;-57
2022/04/29 00:42:14;;;;;;;18.02;8.50;;;9.80;99.90;;;;;;5062505;28;20036;-58
2022/04/29 00:44:41;;;;;;;15.95;7.18;;;9.90;99.90;;;;;;5061955;28;20024;-59
2022/04/29 00:47:11;;;;;;;22.30;7.65;;;9.90;99.90;;;;;;5057357;28;20648;-60
2022/04/29 00:49:37;;;;;;;17.65;6.88;;;9.90;99.90;;;;;;5058272;28;20024;-58
2022/04/29 00:52:06;;;;;;;15.60;7.13;;;9.90;99.90;;;;;;5058405;28;20036;-59
2022/04/29 00:54:35;;;;;;;11.75;6.68;;;9.80;99.90;;;;;;5076679;28;20027;-60
2022/04/29 00:57:06;;;;;;;17.13;7.82;;;9.70;99.90;;;;;;5057753;28;20074;-60
2022/04/29 00:59:46;;;;;;;14.93;7.28;;;9.80;99.90;;;;;;5057669;28;20024;-60
2022/04/29 01:02:14;;;;;;;17.63;7.05;;;9.80;99.90;;;;;;5058011;28;20087;-60
2022/04/29 01:04:52;;;;;;;12.63;6.70;;;9.80;99.90;;;;;;5075382;28;20086;-59
2022/04/29 01:07:17;;;;;;;11.48;6.25;;;9.80;99.90;;;;;;5075493;28;20028;-59
2022/04/29 01:09:43;;;;;;;15.52;5.85;;;9.70;99.90;;;;;;5075370;28;20024;-59
2022/04/29 01:12:09;;;;;;;20.90;7.00;;;9.70;99.90;;;;;;5057532;28;20021;-60
2022/04/29 01:14:35;;;;;;;17.48;7.00;;;9.70;99.90;;;;;;5075448;28;20027;-60
2022/04/29 01:17:00;;;;;;;12.23;6.78;;;9.60;99.90;;;;;;5075332;28;20020;-59
2022/04/29 01:19:26;;;;;;;12.43;6.63;;;9.60;99.90;;;;;;5075592;28;20103;-60
2022/04/29 01:21:52;;;;;;;14.63;6.60;;;9.50;99.90;;;;;;5075753;28;20113;-58
2022/04/29 01:24:17;;;;;;;12.25;6.60;;;9.60;99.90;;;;;;5074982;28;20078;-59
2022/04/29 01:26:43;;;;;;;12.27;7.22;;;9.60;99.90;;;;;;5057545;28;20522;-59
2022/04/29 01:29:09;;;;;;;17.17;7.35;;;9.60;99.90;;;;;;5074873;28;20495;-60
2022/04/29 01:31:36;;;;;;;14.35;7.75;;;9.40;99.90;;;;;;5057805;28;20031;-60
2022/04/29 01:34:02;;;;;;;14.90;8.30;;;9.40;99.90;;;;;;5074963;28;20028;-60
2022/04/29 01:36:28;;;;;;;14.10;7.82;;;9.30;99.90;;;;;;5057320;28;20028;-60
2022/04/29 01:38:54;;;;;;;15.13;7.05;;;9.20;99.90;;;;;;5057049;28;20067;-60
2022/04/29 01:41:19;;;;;;;11.00;6.45;;;9.20;99.90;;;;;;5074840;28;20060;-60
2022/04/29 01:43:46;;;;;;;13.88;7.05;;;9.20;99.90;;;;;;5057102;28;20027;-60
2022/04/29 01:46:12;;;;;;;14.77;7.97;;;9.30;99.90;;;;;;5057083;28;20056;-60
2022/04/29 01:48:38;;;;;;;11.18;6.20;;;9.30;99.90;;;;;;5056632;28;20091;-60
2022/04/29 01:51:06;;;;;;;15.18;6.72;;;9.20;99.90;;;;;;5074679;28;20023;-59
2022/04/29 01:53:32;;;;;;;15.25;6.93;;;9.20;99.90;;;;;;5056598;28;20021;-58
2022/04/29 01:55:59;;;;;;;16.05;6.78;;;9.20;99.90;;;;;;5057378;28;20031;-60
2022/04/29 01:58:24;;;;;;;14.23;7.38;;;9.10;99.90;;;;;;5074518;28;20025;-57
2022/04/29 02:00:50;;;;;;;15.77;7.22;;;9.10;99.90;;;;;;5056712;28;20093;-60
2022/04/29 02:03:16;;;;;;;16.10;7.22;;;9.00;99.90;;;;;;5056574;28;20121;-59
2022/04/29 02:05:42;;;;;;;13.65;7.30;;;9.00;99.90;;;;;;5074503;28;20037;-59
2022/04/29 02:08:08;;;;;;;14.05;7.68;;;9.10;99.90;;;;;;5056436;28;20032;-60
2022/04/29 02:10:34;;;;;;;13.57;6.75;;;9.10;99.90;;;;;;5056175;28;20024;-58
2022/04/29 02:12:59;;;;;;;12.20;7.13;;;9.10;99.90;;;;;;5056330;28;20070;-58
2022/04/29 02:15:26;;;;;;;14.50;7.10;;;9.10;99.90;;;;;;5056126;28;20021;-59
2022/04/29 02:17:51;;;;;;;11.98;7.15;;;9.10;99.90;;;;;;5074262;28;20079;-59
2022/04/29 02:20:17;;;;;;;21.58;7.95;;;9.10;99.90;;;;;;5056621;28;20064;-59
2022/04/29 02:22:43;;;;;;;12.70;6.32;;;9.10;99.90;;;;;;5056060;28;20028;-57
2022/04/29 02:25:09;;;;;;;12.07;6.47;;;9.10;99.90;;;;;;5055925;28;20062;-59
2022/04/29 02:27:37;;;;;;;11.23;6.43;;;9.10;99.90;;;;;;5073935;28;20078;-59
2022/04/29 02:30:04;;;;;;;13.10;7.32;;;9.10;99.90;;;;;;5073839;28;20048;-59
2022/04/29 02:32:31;;;;;;;13.38;7.95;;;9.00;99.90;;;;;;5056255;28;20029;-59
2022/04/29 02:34:58;;;;;;;16.63;7.38;;;9.00;99.90;;;;;;5073773;28;20021;-58
2022/04/29 02:37:24;;;;;;;15.52;7.13;;;8.90;99.90;;;;;;5073788;28;20017;-60
2022/04/29 02:39:49;;;;;;;19.17;7.78;;;8.90;99.90;;;;;;5055991;28;20021;-58
2022/04/29 02:42:15;;;;;;;16.38;7.65;;;8.80;99.90;;;;;;5055764;28;20031;-59
2022/04/29 02:44:41;;;;;;;18.90;8.88;;;8.80;99.90;;;;;;5073879;28;20101;-61
2022/04/29 02:47:06;;;;;;;14.80;6.82;;;8.90;99.90;;;;;;5073556;28;20025;-59
2022/04/29 02:49:32;;;;;;;15.73;7.70;;;8.90;99.90;;;;;;5055312;28;20020;-56
2022/04/29 02:51:58;;;;;;;20.90;7.43;;;8.90;99.90;;;;;;5055412;28;20092;-56
2022/04/29 02:54:24;;;;;;;15.13;7.43;;;8.90;99.90;;;;;;5073507;28;20107;-58
2022/04/29 02:56:50;;;;;;;12.13;6.93;;;8.90;99.90;;;;;;5055286;28;20020;-59
2022/04/29 02:59:19;;;;;;;13.20;6.90;;;8.90;99.90;;;;;;5073711;28;20029;-56
2022/04/29 03:01:46;;;;;;;14.35;7.22;;;8.80;99.90;;;;;;5055287;28;20047;-57
2022/04/29 03:04:12;;;;;;;13.30;7.47;;;8.90;99.90;;;;;;5055282;28;20028;-60
2022/04/29 03:06:38;;;;;;;16.67;7.82;;;8.90;99.90;;;;;;5073484;28;20093;-59
2022/04/29 03:09:03;;;;;;;16.42;7.53;;;8.90;99.90;;;;;;5055459;28;20083;-55
2022/04/29 03:11:29;;;;;;;17.85;8.13;;;8.90;99.90;;;;;;5073159;28;20040;-58
2022/04/29 03:13:55;;;;;;;13.38;7.10;;;8.90;99.90;;;;;;5073196;28;20077;-59
2022/04/29 03:16:20;;;;;;;13.35;7.18;;;8.80;99.90;;;;;;5073257;28;20020;-60
2022/04/29 03:18:46;;;;;;;13.73;7.35;;;8.70;99.90;;;;;;5055545;28;20494;-59
2022/04/29 03:21:13;;;;;;;15.63;7.75;;;8.70;99.90;;;;;;5055836;28;20027;-58
2022/04/29 03:23:38;;;;;;;15.45;7.53;;;8.70;99.90;;;;;;5055134;28;20032;-58
2022/04/29 03:26:05;;;;;;;13.73;7.25;;;8.60;99.90;;;;;;5055174;28;20092;-59
2022/04/29 03:28:31;;;;;;;12.13;6.45;;;8.60;99.90;;;;;;5055405;28;20031;-59
2022/04/29 03:30:58;;;;;;;16.58;6.63;;;8.60;99.90;;;;;;5073170;28;20017;-59
2022/04/29 03:33:23;;;;;;;17.60;7.90;;;8.60;99.90;;;;;;5055317;28;20020;-59
2022/04/29 03:35:53;;;;;;;14.95;7.72;;;8.70;99.90;;;;;;5073260;28;20030;-56
2022/04/29 03:38:19;;;;;;;18.50;7.07;;;8.70;99.90;;;;;;5073130;28;20025;-59
2022/04/29 03:40:45;;;;;;;13.60;7.00;;;8.70;99.90;;;;;;5054834;28;20035;-58
2022/04/29 03:43:13;;;;;;;14.40;6.22;;;8.70;99.90;;;;;;5054888;28;20093;-58
2022/04/29 03:45:40;;;;;;;13.07;6.43;;;8.70;99.90;;;;;;5072824;28;20505;-59
2022/04/29 03:48:06;;;;;;;13.60;7.85;;;8.60;99.90;;;;;;5054747;28;20031;-59
2022/04/29 03:50:32;;;;;;;12.70;6.32;;;8.50;99.90;;;;;;5055614;28;20016;-60
2022/04/29 03:52:59;;;;;;;13.40;6.78;;;8.40;99.90;;;;;;5054959;28;20027;-58
2022/04/29 03:55:27;;;;;;;12.07;6.18;;;8.40;99.90;;;;;;5073011;28;20027;-58
2022/04/29 03:57:54;;;;;;;12.55;6.60;;;8.40;99.90;;;;;;5055464;28;20025;-58
2022/04/29 04:00:20;;;;;;;14.25;6.65;;;8.40;99.90;;;;;;5072717;28;20028;-60
2022/04/29 04:02:46;;;;;;;14.63;7.38;;;8.50;99.90;;;;;;5054653;28;20039;-60
2022/04/29 04:05:12;;;;;;;17.48;6.45;;;8.40;99.90;;;;;;5054307;28;20032;-59
2022/04/29 04:07:38;;;;;;;15.80;7.22;;;8.40;99.90;;;;;;5054307;28;20036;-60
2022/04/29 04:10:05;;;;;;;13.90;6.70;;;8.40;99.90;;;;;;5054404;28;20020;-59
2022/04/29 04:12:49;;;;;;;12.52;6.35;;;8.40;99.90;;;;;;5072383;28;20498;-60
2022/04/29 04:15:16;;;;;;;14.80;7.25;;;8.40;99.90;;;;;;5054503;28;20017;-60
2022/04/29 04:17:42;;;;;;;13.73;6.68;;;8.40;99.90;;;;;;5054729;28;20025;-60
2022/04/29 04:20:09;;;;;;;14.68;7.38;;;8.30;99.90;;;;;;5055566;28;20016;-59
2022/04/29 04:22:35;;;;;;;16.05;6.97;;;8.20;99.90;;;;;;5058011;28;20017;-58
2022/04/29 04:25:09;;;;;;;19.55;7.00;;;8.20;99.90;;;;;;5057966;28;20032;-58
2022/04/29 04:27:35;;;;;;;15.13;7.78;;;8.40;99.90;;;;;;5058243;28;20040;-56
2022/04/29 04:30:02;;;;;;;13.85;6.70;;;8.50;99.90;;;;;;5058589;28;20518;-57
2022/04/29 04:32:28;;;;;;;14.93;6.78;;;8.60;99.90;;;;;;5076131;28;20093;-59
2022/04/29 04:34:55;;;;;;;13.52;7.40;;;8.70;99.90;;;;;;5058323;28;20361;-58
2022/04/29 04:37:22;;;;;;;17.65;7.00;;;8.90;99.90;;;;;;5058394;28;20486;-59
2022/04/29 04:39:49;;;;;;;16.63;7.35;;;8.90;99.90;;;;;;5076498;28;20021;-59
2022/04/29 04:42:15;;;;;;;17.52;7.00;;;9.00;99.90;;;;;;5058572;28;20029;-59
2022/04/29 04:44:41;;;;;;;22.10;8.88;;;9.20;99.90;;;;;;5058182;28;20024;-59
2022/04/29 04:47:08;;;;;;;23.30;9.52;;;9.60;99.90;;;;;;5058388;28;20028;-56
2022/04/29 04:49:34;;;;;;;24.75;10.82;;;10.00;99.90;;;;;;5057968;28;20032;-58
2022/04/29 04:52:00;;;;;;;33.35;11.70;;;10.30;99.90;;;;;;5076039;28;20020;-59
2022/04/29 04:54:26;;;;;;;29.80;11.43;;;10.60;99.90;;;;;;5058147;28;20032;-59
2022/04/29 04:56:52;;;;;;;25.75;11.23;;;10.80;99.90;;;;;;5058094;28;20016;-59
2022/04/29 04:59:17;;;;;;;27.13;11.43;;;11.00;99.90;;;;;;5075944;28;20020;-58
2022/04/29 05:01:43;;;;;;;26.98;10.85;;;11.30;99.90;;;;;;5057960;28;20055;-59
2022/04/29 05:04:09;;;;;;;21.73;10.18;;;11.50;99.90;;;;;;5057768;28;20024;-58
2022/04/29 05:06:38;;;;;;;20.48;10.40;;;11.70;99.90;;;;;;5057931;28;20368;-59
2022/04/29 05:09:04;;;;;;;21.00;11.52;;;12.00;99.90;;;;;;5075647;28;20035;-59
2022/04/29 05:11:30;;;;;;;23.15;10.48;;;12.30;99.90;;;;;;5075603;28;20021;-58
2022/04/29 05:13:57;;;;;;;25.25;10.43;;;12.50;99.90;;;;;;5057956;28;20024;-58
2022/04/29 05:16:23;;;;;;;27.60;10.77;;;12.50;99.90;;;;;;5057542;28;20503;-59
2022/04/29 05:18:49;;;;;;;18.63;9.30;;;12.50;99.90;;;;;;5057902;28;20028;-55
2022/04/29 05:21:15;;;;;;;19.88;9.75;;;12.50;99.90;;;;;;5075278;28;20394;-59
2022/04/29 05:23:42;;;;;;;19.75;9.88;;;12.60;99.90;;;;;;5058219;28;20028;-59
2022/04/29 05:26:07;;;;;;;20.17;9.35;;;12.60;99.90;;;;;;5057135;28;20028;-60
2022/04/29 05:28:34;;;;;;;18.13;8.93;;;12.80;99.90;;;;;;5057309;28;20027;-58
2022/04/29 05:31:00;;;;;;;18.70;8.80;;;13.10;99.90;;;;;;5075145;28;20019;-58
2022/04/29 05:33:27;;;;;;;21.58;8.90;;;13.40;99.90;;;;;;5056607;28;20025;-60
2022/04/29 05:35:52;;;;;;;16.23;8.60;;;13.50;99.90;;;;;;5075232;28;20024;-60
2022/04/29 05:38:18;;;;;;;15.65;8.63;;;13.70;99.90;;;;;;5057366;28;20024;-60
2022/04/29 05:43:28;;;;;;;13.65;8.55;;;14.70;99.90;;;;;;5075556;28;20054;-58
2022/04/29 05:45:54;;;;;;;17.10;7.82;;;15.40;99.90;;;;;;5057597;28;20028;-60
2022/04/29 05:48:20;;;;;;;22.65;9.30;;;16.10;99.90;;;;;;5075190;28;20099;-60
2022/04/29 05:50:46;;;;;;;16.02;8.70;;;16.60;99.90;;;;;;5075014;28;20025;-60
2022/04/29 05:53:12;;;;;;;16.73;8.75;;;16.90;99.90;;;;;;5057057;28;20024;-60
2022/04/29 05:55:38;;;;;;;13.02;7.63;;;17.20;99.90;;;;;;5056963;28;20120;-60
2022/04/29 05:58:03;;;;;;;13.65;7.00;;;17.30;99.90;;;;;;5057432;28;20036;-60
2022/04/29 06:00:29;;;;;;;14.80;7.88;;;17.50;99.90;;;;;;5075147;28;20107;-60
2022/04/29 06:02:55;;;;;;;16.52;8.07;;;17.50;99.90;;;;;;5074656;28;20027;-60
2022/04/29 06:05:21;;;;;;;15.13;7.22;;;17.20;99.90;;;;;;5057012;28;20028;-60
2022/04/29 06:07:46;;;;;;;12.25;7.05;;;17.10;99.90;;;;;;5074750;28;20028;-58
2022/04/29 06:10:12;;;;;;;13.05;7.50;;;17.10;99.90;;;;;;5056745;28;20025;-60
2022/04/29 06:12:42;;;;;;;15.38;7.07;;;17.00;99.90;;;;;;5074727;28;20495;-60
2022/04/29 06:15:13;;;;;;;8.10;5.60;;;17.00;99.90;;;;;;5074783;28;20016;-60
2022/04/29 06:17:39;;;;;;;13.27;7.63;;;16.80;99.90;;;;;;5056762;28;20021;-60
2022/04/29 06:20:05;;;;;;;12.93;7.43;;;16.40;99.90;;;;;;5056436;28;20031;-60
2022/04/29 06:22:31;;;;;;;13.80;7.03;;;16.40;99.90;;;;;;5056323;28;20024;-60
2022/04/29 06:24:57;;;;;;;12.30;6.78;;;16.40;99.90;;;;;;5056536;28;20017;-60
2022/04/29 06:27:23;;;;;;;14.82;6.82;;;16.30;99.90;;;;;;5074406;28;20021;-60
2022/04/29 06:29:48;;;;;;;19.40;7.22;;;16.40;99.90;;;;;;5056303;28;20094;-61
2022/04/29 06:32:14;;;;;;;13.95;7.60;;;16.50;99.90;;;;;;5056369;28;20021;-60
2022/04/29 06:34:39;;;;;;;14.18;7.07;;;16.30;99.90;;;;;;5074257;28;20017;-60
2022/04/29 06:37:06;;;;;;;17.13;7.60;;;16.30;99.90;;;;;;5056395;28;20024;-59
2022/04/29 06:39:32;;;;;;;13.63;6.95;;;16.20;99.90;;;;;;5056079;28;20486;-60
2022/04/29 06:41:57;;;;;;;14.07;7.03;;;16.10;99.90;;;;;;5056392;28;20120;-60
2022/04/29 06:44:23;;;;;;;17.00;7.68;;;16.10;99.90;;;;;;5073163;28;20052;-62
2022/04/29 06:46:50;;;;;;;17.23;7.82;;;16.20;99.90;;;;;;5056852;28;20028;-61
2022/04/29 06:49:16;;;;;;;18.38;8.35;;;16.10;99.90;;;;;;5073883;28;20017;-61
2022/04/29 06:51:42;;;;;;;15.05;7.78;;;16.10;99.90;;;;;;5056595;28;20021;-60
2022/04/29 06:54:08;;;;;;;15.40;7.95;;;15.80;99.90;;;;;;5073958;28;20025;-60
2022/04/29 06:56:33;;;;;;;13.45;8.48;;;15.80;99.90;;;;;;5073867;28;20486;-59
2022/04/29 06:58:59;;;;;;;17.30;8.57;;;15.60;99.90;;;;;;5055827;28;20029;-57
2022/04/29 07:01:25;;;;;;;16.85;8.57;;;15.60;99.90;;;;;;5055828;28;20082;-60
2022/04/29 07:03:51;;;;;;;20.88;8.45;;;15.50;99.90;;;;;;5073757;28;20043;-63
2022/04/29 07:06:17;;;;;;;17.98;8.10;;;15.50;99.90;;;;;;5056702;28;20025;-60
2022/04/29 07:08:43;;;;;;;17.52;8.57;;;15.50;99.90;;;;;;5073872;28;20405;-60
2022/04/29 07:11:08;;;;;;;19.40;7.70;;;15.60;99.90;;;;;;5074152;28;20028;-59
2022/04/29 07:13:34;;;;;;;14.20;8.13;;;15.70;99.90;;;;;;5055719;28;20078;-60
2022/04/29 07:16:00;;;;;;;12.70;7.13;;;16.10;99.90;;;;;;5055511;28;20017;-61
2022/04/29 07:18:25;;;;;;;11.95;7.38;;;16.80;99.90;;;;;;5073878;28;20111;-58
2022/04/29 07:20:51;;;;;;;16.48;7.43;;;17.70;99.90;;;;;;5073394;28;20020;-61
2022/04/29 07:23:17;;;;;;;11.50;6.85;;;18.60;99.90;;;;;;5073560;28;20020;-57
2022/04/29 07:25:42;;;;;;;13.20;7.90;;;19.10;99.90;;;;;;5055629;28;20060;-60
2022/04/29 07:28:08;;;;;;;12.80;7.35;;;19.80;99.90;;;;;;5073313;28;20024;-59
2022/04/29 07:30:34;;;;;;;14.30;7.82;;;20.50;99.90;;;;;;5056158;28;20364;-60
2022/04/29 07:32:59;;;;;;;14.20;7.00;;;21.10;99.90;;;;;;5055623;28;20027;-61
2022/04/29 07:43:38;;;;;;;14.57;8.80;;;24.80;91.30;;;;;;5073869;28;20035;-61
2022/04/29 07:46:04;;;;;;;12.20;7.32;;;25.10;89.70;;;;;;5055393;28;20024;-61
2022/04/29 07:48:31;;;;;;;14.52;7.72;;;25.10;87.80;;;;;;5055111;28;20094;-61
2022/04/29 07:50:57;;;;;;;10.38;7.45;;;25.50;84.30;;;;;;5055239;28;20074;-61
2022/04/29 07:53:23;;;;;;;14.07;8.65;;;25.30;83.60;;;;;;5073131;28;20027;-61
2022/04/29 07:55:48;;;;;;;14.98;7.55;;;25.10;84.50;;;;;;5074926;28;20025;-61
2022/04/29 07:58:14;;;;;;;12.73;7.90;;;25.30;83.50;;;;;;5059193;28;20024;-61
2022/04/29 08:00:40;;;;;;;14.40;7.57;;;25.10;84.20;;;;;;5059163;28;20032;-61
2022/04/29 08:03:06;;;;;;;17.83;8.38;;;24.90;81.20;;;;;;5059436;28;20111;-61
2022/04/29 08:05:32;;;;;;;17.27;7.55;;;24.40;82.40;;;;;;5077045;28;20137;-61
2022/04/29 08:08:00;;;;;;;12.70;7.00;;;24.20;83.30;;;;;;5076941;28;20028;-61
2022/04/29 08:10:30;;;;;;;10.85;5.95;;;24.40;83.10;;;;;;5058858;28;20075;-61
2022/04/29 08:13:02;;;;;;;13.80;7.38;;;24.90;82.60;;;;;;5059099;28;20023;-61
2022/04/29 08:15:29;;;;;;;20.05;8.20;;;24.00;81.80;;;;;;5077035;28;20074;-59
2022/04/29 08:17:57;;;;;;;14.27;8.20;;;24.10;83.40;;;;;;5059309;28;20048;-61
2022/04/29 08:20:23;;;;;;;11.98;7.40;;;23.90;84.20;;;;;;5059818;28;20115;-59
2022/04/29 08:22:49;;;;;;;17.13;7.28;;;24.00;84.10;;;;;;5076711;28;20021;-61
2022/04/29 08:25:17;;;;;;;14.55;8.55;;;23.90;85.70;;;;;;5076637;28;20070;-61
2022/04/29 08:27:43;;;;;;;13.13;8.30;;;23.70;85.20;;;;;;5058612;28;20028;-61
2022/04/29 08:30:09;;;;;;;13.55;6.95;;;23.70;84.40;;;;;;5076468;28;20056;-61
2022/04/29 08:32:43;;;;;;;17.40;8.43;;;23.50;84.40;;;;;;5058569;28;20024;-59
2022/04/29 08:35:10;;;;;;;19.23;7.88;;;23.20;86.50;;;;;;5058665;28;20284;-61
2022/04/29 08:37:40;;;;;;;11.65;7.72;;;23.00;88.10;;;;;;5059246;28;20052;-61
2022/04/29 08:40:08;;;;;;;14.73;7.90;;;23.10;86.90;;;;;;5058977;28;20035;-61
2022/04/29 08:42:40;;;;;;;14.48;7.97;;;23.10;87.40;;;;;;5058442;28;20032;-61
2022/04/29 08:45:07;;;;;;;11.52;7.68;;;22.90;89.20;;;;;;5076312;28;20016;-61
2022/04/29 08:47:37;;;;;;;17.60;8.18;;;22.70;89.80;;;;;;5076536;28;20029;-61
2022/04/29 08:50:10;;;;;;;14.45;8.13;;;22.30;90.00;;;;;;5076263;28;20077;-63
2022/04/29 08:52:36;;;;;;;11.90;7.63;;;22.10;90.30;;;;;;5058107;28;20053;-62
2022/04/29 09:00:33;;;;;;;13.52;8.35;;;22.30;90.60;;;;;;5076462;28;20112;-61
2022/04/29 09:03:02;;;;;;;19.65;8.23;;;22.30;90.80;;;;;;5075932;28;20021;-61
2022/04/29 09:05:27;;;;;;;14.85;7.80;;;22.30;90.50;;;;;;5075952;28;20092;-63
2022/04/29 09:07:56;;;;;;;14.48;8.23;;;22.30;91.00;;;;;;5057102;28;20060;-61
2022/04/29 09:10:24;;;;;;;17.05;8.10;;;22.20;90.90;;;;;;5075759;28;20017;-61
2022/04/29 09:12:50;;;;;;;14.18;7.22;;;22.30;90.40;;;;;;5075871;28;20017;-61
2022/04/29 09:15:16;;;;;;;17.83;8.07;;;22.40;90.20;;;;;;5057780;28;20070;-62
2022/04/29 09:17:47;;;;;;;13.05;8.45;;;22.50;90.90;;;;;;5075747;28;20099;-61
2022/04/29 09:20:18;;;;;;;16.33;8.27;;;22.80;87.70;;;;;;5058765;28;20088;-61
2022/04/29 09:22:52;;;;;;;13.20;7.05;;;22.90;87.80;;;;;;5075683;28;20036;-61
2022/04/29 09:25:18;;;;;;;14.68;8.52;;;22.80;89.80;;;;;;5058447;28;20028;-60
2022/04/29 09:27:57;;;;;;;15.30;8.38;;;22.50;88.80;;;;;;5075514;28;20099;-61
2022/04/29 09:30:40;;;;;;;14.65;8.27;;;22.30;90.50;;;;;;5057660;28;20162;-64
2022/04/29 09:33:27;;;;;;;15.38;7.38;;;22.30;90.30;;;;;;5058482;28;20028;-64
2022/04/29 09:35:54;;;;;;;15.32;8.50;;;22.30;90.30;;;;;;5057653;28;20382;-61
2022/04/29 09:41:05;;;;;;;12.75;8.02;;;22.40;90.60;;;;;;5075900;28;20446;-62
2022/04/29 09:43:46;;;;;;;15.70;8.30;;;22.30;90.90;;;;;;5057414;28;20024;-61
2022/04/29 09:46:23;;;;;;;12.10;7.78;;;22.30;90.00;;;;;;5075404;28;20048;-61
2022/04/29 09:49:09;;;;;;;11.73;7.60;;;22.30;90.00;;;;;;5075051;28;20024;-61
2022/04/29 09:51:47;;;;;;;10.70;6.00;;;22.30;89.20;;;;;;5057584;28;20111;-64
2022/04/29 09:54:19;;;;;;;10.50;6.30;;;22.40;90.10;;;;;;5075118;28;20039;-62
2022/04/29 09:57:06;;;;;;;15.98;7.53;;;23.10;88.20;;;;;;5057410;28;20017;-62
2022/04/29 09:59:40;;;;;;;12.40;7.47;;;24.10;85.50;;;;;;5075004;28;20035;-62
2022/04/29 10:02:07;;;;;;;8.65;6.25;;;24.80;84.10;;;;;;5057232;28;20566;-62
2022/04/29 10:04:35;;;;;;;12.73;7.18;;;25.30;82.50;;;;;;5075047;28;20123;-62
2022/04/29 10:07:06;;;;;;;10.57;6.65;;;25.70;81.20;;;;;;5057784;28;20020;-62
2022/04/29 10:09:33;;;;;;;;;;;26.10;79.80;;;;;;5057181;28;20021;-62
2022/04/29 10:12:04;;;;;;;12.68;6.93;;;26.30;79.20;;;;;;5074893;28;19908;-62
2022/04/29 10:14:35;;;;;;;14.63;8.45;;;26.50;78.50;;;;;;5057880;28;20028;-62
2022/04/29 10:23:01;;;;;;;14.80;7.32;;;27.20;76.80;;;;;;5074651;28;20040;-61
2022/04/29 10:25:28;;;;;;;13.88;7.18;;;27.20;74.60;;;;;;5056753;28;20453;-61
2022/04/29 10:27:54;;;;;;;11.68;7.30;;;26.30;74.10;;;;;;5056694;28;20028;-62
2022/04/29 10:30:34;;;;;;;10.82;6.35;;;25.70;75.80;;;;;;5056784;28;20063;-61
2022/04/29 10:33:17;;;;;;;9.35;6.20;;;25.20;78.20;;;;;;5056575;28;20024;-61
2022/04/29 10:35:46;;;;;;;11.68;6.05;;;25.30;77.60;;;;;;5056757;28;20021;-61
2022/04/29 10:38:18;;;;;;;8.20;5.43;;;25.10;75.80;;;;;;5056349;28;20035;-61
2022/04/29 10:40:45;;;;;;;8.98;7.43;;;24.90;76.60;;;;;;5057057;28;20115;-59
2022/04/29 10:43:14;;;;;;;12.20;6.65;;;24.70;75.30;;;;;;5056148;28;20032;-62
2022/04/29 10:46:05;;;;;;;13.70;7.00;;;24.60;76.70;;;;;;5056072;28;20028;-62
2022/04/29 10:48:31;;;;;;;10.67;6.73;;;24.40;75.70;;;;;;5056037;28;20051;-62
2022/04/29 10:51:09;;;;;;;12.63;6.97;;;24.40;78.90;;;;;;5055978;28;20306;-62
2022/04/29 10:53:41;;;;;;;14.43;6.82;;;24.30;79.00;;;;;;5056945;28;20025;-61
2022/04/29 10:56:28;;;;;;;14.52;7.00;;;24.30;79.00;;;;;;5056324;28;20025;-61
2022/04/29 10:59:04;;;;;;;13.50;6.68;;;24.20;78.60;;;;;;5073909;28;20020;-61
2022/04/29 11:01:34;;;;;;;14.75;7.75;;;23.80;78.30;;;;;;5056055;28;20119;-61
2022/04/29 11:04:15;;;;;;;12.35;7.70;;;23.70;81.80;;;;;;5055745;28;20024;-61
2022/04/29 11:06:47;;;;;;;12.27;8.07;;;23.80;80.70;;;;;;5073787;28;20031;-61
2022/04/29 11:09:47;;;;;;;9.90;7.00;;;23.80;80.80;;;;;;5056072;28;20558;-61
2022/04/29 11:12:33;;;;;;;11.38;6.70;;;23.80;82.20;;;;;;5055660;28;20025;-61
2022/04/29 11:15:18;;;;;;;9.88;6.55;;;23.80;81.20;;;;;;5056358;28;20075;-61
2022/04/29 11:17:44;;;;;;;12.18;7.20;;;23.80;81.90;;;;;;5055802;28;20078;-61
2022/04/29 11:20:14;;;;;;;15.07;7.38;;;23.50;81.70;;;;;;5073620;28;20111;-61
2022/04/29 11:25:24;;;;;;;12.32;7.50;;;23.10;84.70;;;;;;5074150;28;20031;-61
2022/04/29 11:27:53;;;;;;;15.63;7.15;;;22.80;83.90;;;;;;5073468;28;20020;-61
2022/04/29 11:30:19;;;;;;;12.18;6.85;;;22.30;86.00;;;;;;5072948;28;20056;-61
2022/04/29 11:32:45;;;;;;;13.02;6.70;;;22.30;85.70;;;;;;5055470;28;20044;-61
2022/04/29 11:35:10;;;;;;;13.10;7.60;;;22.40;85.10;;;;;;5056362;28;20055;-61
2022/04/29 11:37:36;;;;;;;11.88;7.18;;;22.50;84.60;;;;;;5056010;28;20097;-61
2022/04/29 11:40:03;;;;;;;10.77;5.68;;;22.70;86.40;;;;;;5055347;28;20024;-61
2022/04/29 11:42:28;;;;;;;13.68;6.63;;;22.90;86.00;;;;;;5073547;28;20032;-61
2022/04/29 11:44:55;;;;;;;17.65;6.28;;;23.10;84.40;;;;;;5073240;28;20031;-61
2022/04/29 11:47:25;;;;;;;9.68;6.00;;;23.10;84.70;;;;;;5055356;28;20063;-61
2022/04/29 11:49:52;;;;;;;12.70;7.07;;;23.10;85.00;;;;;;5073245;28;20028;-61
2022/04/29 11:52:20;;;;;;;10.85;6.75;;;23.10;82.80;;;;;;5073238;28;20025;-60
2022/04/29 11:55:00;;;;;;;11.80;6.28;;;22.90;83.80;;;;;;5055246;28;20024;-61
2022/04/29 11:57:28;;;;;;;7.32;5.88;;;23.00;85.10;;;;;;5056355;28;20458;-61
2022/04/29 11:59:53;;;;;;;14.38;6.28;;;23.20;84.00;;;;;;5055323;28;20074;-61
2022/04/29 12:02:22;;;;;;;11.00;5.60;;;23.20;84.00;;;;;;5073162;28;20033;-59
2022/04/29 12:04:55;;;;;;;10.93;6.47;;;23.30;83.50;;;;;;5073497;28;20064;-61
2022/04/29 12:07:21;;;;;;;10.88;5.93;;;23.30;83.20;;;;;;5073320;28;20036;-61
2022/04/29 12:09:47;;;;;;;13.93;5.50;;;23.40;82.40;;;;;;5073284;28;20029;-61
2022/04/29 12:12:27;;;;;;;11.15;6.18;;;23.50;82.90;;;;;;5054989;28;20024;-60
2022/04/29 12:14:59;;;;;;;13.32;5.72;;;23.50;81.10;;;;;;5073108;28;20022;-61
2022/04/29 12:17:36;;;;;;;14.30;6.22;;;23.60;81.70;;;;;;5056257;28;20371;-61
2022/04/29 12:20:03;;;;;;;9.32;5.95;;;23.60;80.40;;;;;;5055133;28;20028;-61
2022/04/29 12:22:31;;;;;;;7.90;5.20;;;23.40;81.60;;;;;;5055343;28;20044;-61
2022/04/29 12:24:57;;;;;;;11.48;5.72;;;23.30;82.20;;;;;;5055180;28;20132;-62
2022/04/29 12:27:30;;;;;;;12.77;5.95;;;23.40;80.50;;;;;;5073192;28;20111;-62
2022/04/29 12:35:29;;;;;;;12.07;6.07;;;23.30;80.00;;;;;;5073543;28;20047;-64
2022/04/29 12:37:54;;;;;;;9.57;5.47;;;23.30;79.80;;;;;;5072944;28;20467;-62
2022/04/29 12:40:30;;;;;;;10.10;5.47;;;23.40;78.90;;;;;;5055238;28;20027;-61
2022/04/29 12:43:12;;;;;;;13.13;6.25;;;23.20;78.90;;;;;;5075979;28;20027;-62
2022/04/29 12:45:38;;;;;;;8.32;5.05;;;23.10;79.30;;;;;;5059008;28;20027;-61
2022/04/29 12:48:07;;;;;;;8.70;5.32;;;23.30;78.60;;;;;;5058465;28;20020;-62
2022/04/29 12:50:43;;;;;;;8.32;4.63;;;23.30;77.30;;;;;;5058721;28;20029;-62
2022/04/29 12:53:18;;;;;;;10.00;4.82;;;23.40;78.20;;;;;;5058159;28;20052;-62
2022/04/29 12:55:44;;;;;;;11.57;5.05;;;23.40;76.70;;;;;;5076101;28;20024;-62
2022/04/29 12:58:17;;;;;;;7.57;4.65;;;23.50;76.80;;;;;;5076208;28;20035;-62
2022/04/29 13:00:46;;;;;;;7.10;3.90;;;23.60;76.40;;;;;;5076391;28;20040;-62
2022/04/29 13:03:37;;;;;;;7.63;4.40;;;23.70;76.20;;;;;;5058095;28;20051;-62
2022/04/29 13:06:03;;;;;;;8.32;5.15;;;23.30;73.60;;;;;;5054338;28;20044;-61
2022/04/29 13:08:29;;;;;;;7.03;4.18;;;22.90;73.50;;;;;;5076359;28;20027;-61
2022/04/29 13:10:57;;;;;;;9.00;4.45;;;22.40;75.50;;;;;;5057865;28;20032;-62
2022/04/29 13:13:26;;;;;;;9.77;3.50;;;22.40;78.40;;;;;;5057830;28;20024;-61
2022/04/29 13:15:52;;;;;;;6.50;3.65;;;22.40;78.00;;;;;;5075919;28;20024;-61
2022/04/29 13:18:19;;;;;;;7.95;3.83;;;22.50;77.50;;;;;;5058722;28;20074;-62